Terminal Aerodrome Forecast
Issued by NWS Atlanta, GA

Home | Current Version | Previous Version | Text Only | Print | Product List | Glossary On
Versions: 1 2 3 4 5 6 7 8 9 10 11 12 13 14 15 16 17 18 19 20 21 22 23 24 25 26 27 28 29 30 31 32 33 34 35
000
FTUS42 KFFC 230657 AAA
TAFAHN
TAF AMD
KAHN 230657Z 2307/2406 14004KT 4SM BR SCT100
     FM230900 VRB03KT 6SM HZ BKN035
     FM231200 14002KT 5SM BR BKN015
     FM231600 17005KT P6SM BKN025
     FM231800 17009KT P6SM BKN035 BKN100
     FM240000 16007KT P6SM SCT040 BKN120=

USA.gov is the U.S. government's official web portal to all federal, state and local government web resources and services.